createdAt,value
2022-08-18T00:00:00.503Z,63.76
2022-08-18T00:01:00.700Z,63.86
2022-08-18T00:02:00.906Z,63.46
2022-08-18T00:03:14.206Z,63.27
2022-08-18T00:04:03.075Z,63.46
2022-08-18T00:05:01.090Z,63.46
2022-08-18T00:06:01.193Z,63.57
2022-08-18T00:07:01.323Z,63.57
2022-08-18T00:08:01.455Z,63.37
2022-08-18T00:09:01.574Z,63.46
2022-08-18T00:10:01.712Z,63.46
2022-08-18T00:11:01.828Z,63.57
2022-08-18T00:12:01.944Z,63.67
2022-08-18T00:13:02.073Z,63.37
2022-08-18T00:14:02.182Z,63.37
2022-08-18T00:15:02.291Z,63.96
2022-08-18T00:16:02.402Z,64.06
2022-08-18T00:17:02.518Z,63.86
2022-08-18T00:18:02.641Z,63.76
2022-08-18T00:19:07.099Z,64.00
2022-08-18T00:20:03.844Z,64.09
2022-08-18T00:21:02.962Z,64.19
2022-08-18T00:22:03.082Z,64.09
2022-08-18T00:23:03.211Z,64.00
2022-08-18T00:24:03.322Z,63.79
2022-08-18T00:25:03.440Z,64.36
2022-08-18T00:26:03.552Z,64.00
2022-08-18T00:27:03.688Z,64.39
2022-08-18T00:28:03.807Z,63.86
2022-08-18T00:29:03.923Z,63.89
2022-08-18T00:30:04.042Z,64.00
2022-08-18T00:31:04.165Z,64.29
2022-08-18T00:32:04.269Z,64.09
2022-08-18T00:33:04.390Z,64.00
2022-08-18T00:34:04.502Z,64.00
2022-08-18T00:35:04.612Z,64.39
2022-08-18T00:36:04.725Z,64.19
2022-08-18T00:37:04.852Z,63.79
2022-08-18T00:38:04.973Z,64.39
2022-08-18T00:39:05.088Z,64.49
2022-08-18T00:40:05.281Z,64.00
2022-08-18T00:41:05.273Z,64.49
2022-08-18T00:42:05.399Z,64.19
2022-08-18T00:43:05.521Z,64.19
2022-08-18T00:44:05.632Z,64.00
2022-08-18T00:45:05.782Z,63.89
2022-08-18T00:46:05.893Z,64.29
2022-08-18T00:47:06.005Z,64.09
2022-08-18T00:48:06.137Z,64.00
2022-08-18T00:49:06.265Z,64.49
2022-08-18T00:50:06.384Z,64.19
2022-08-18T00:51:07.448Z,64.29
2022-08-18T00:52:06.561Z,64.09
2022-08-18T00:53:06.690Z,64.00
2022-08-18T00:54:06.801Z,64.39
2022-08-18T00:55:06.912Z,64.89
2022-08-18T00:56:07.021Z,64.29
2022-08-18T00:57:07.136Z,64.39
2022-08-18T00:58:07.276Z,64.19
2022-08-18T00:59:07.377Z,64.19
2022-08-18T01:00:07.508Z,64.29
2022-08-18T01:01:07.723Z,65.02
2022-08-18T01:02:07.727Z,64.12
2022-08-18T01:03:07.914Z,64.22
2022-08-18T01:04:08.034Z,64.42
2022-08-18T01:05:08.161Z,64.42
2022-08-18T01:06:08.272Z,64.62
2022-08-18T01:07:08.386Z,64.32
2022-08-18T01:08:08.521Z,64.92
2022-08-18T01:09:08.651Z,65.02
2022-08-18T01:10:08.760Z,64.62
2022-08-18T01:11:08.886Z,64.62
2022-08-18T01:12:39.428Z,65.22
2022-08-18T01:13:10.085Z,65.42
2022-08-18T01:14:09.196Z,65.61
2022-08-18T01:15:09.321Z,65.12
2022-08-18T01:16:10.379Z,65.12
2022-08-18T01:17:09.483Z,65.91
2022-08-18T01:18:09.618Z,64.75
2022-08-18T01:19:09.737Z,64.95
2022-08-18T01:20:09.855Z,65.02
2022-08-18T01:21:09.959Z,64.85
2022-08-18T01:22:10.083Z,64.95
2022-08-18T01:23:10.221Z,64.95
2022-08-18T01:24:10.334Z,64.75
2022-08-18T01:25:10.450Z,64.95
2022-08-18T01:26:10.572Z,64.95
2022-08-18T01:27:10.680Z,65.15
2022-08-18T01:28:10.811Z,65.15
2022-08-18T01:29:10.933Z,65.05
2022-08-18T01:30:11.009Z,65.05
2022-08-18T01:31:11.122Z,65.25
2022-08-18T01:32:11.234Z,64.95
2022-08-18T01:33:11.362Z,65.15
2022-08-18T01:34:11.426Z,65.15
2022-08-18T01:35:11.532Z,65.25
2022-08-18T01:36:11.691Z,65.55
2022-08-18T01:37:11.802Z,65.15
2022-08-18T01:38:11.940Z,65.55
2022-08-18T01:39:12.052Z,65.35
2022-08-18T01:41:17.421Z,65.35
2022-08-18T01:41:27.176Z,65.45
2022-08-18T01:42:13.401Z,65.55
2022-08-18T01:43:12.483Z,65.55
2022-08-18T01:44:12.600Z,65.64
2022-08-18T01:45:12.771Z,65.84
2022-08-18T01:46:12.765Z,65.75
2022-08-18T01:47:12.886Z,65.75
2022-08-18T01:48:12.996Z,66.05
2022-08-18T01:49:13.122Z,66.08
2022-08-18T01:50:13.252Z,65.98
2022-08-18T01:51:13.414Z,66.08
2022-08-18T01:52:13.528Z,66.38
2022-08-18T01:53:13.650Z,66.17
2022-08-18T01:54:13.806Z,66.38
2022-08-18T01:55:14.774Z,66.27
2022-08-18T01:56:13.993Z,66.67
2022-08-18T01:57:14.111Z,66.47
2022-08-18T01:58:14.236Z,66.38
2022-08-18T01:59:14.363Z,66.77
2022-08-18T02:00:14.488Z,66.38
2022-08-18T02:01:14.671Z,66.47
2022-08-18T02:02:18.241Z,66.67
2022-08-18T02:03:14.801Z,66.61
2022-08-18T02:04:34.414Z,66.71
2022-08-18T02:05:15.991Z,66.61
2022-08-18T02:06:15.110Z,66.61
2022-08-18T02:07:15.300Z,67.00
2022-08-18T02:08:15.389Z,66.91
2022-08-18T02:09:15.482Z,67.10
2022-08-18T02:10:16.774Z,67.00
2022-08-18T02:11:15.681Z,67.40
2022-08-18T02:12:15.845Z,67.10
2022-08-18T02:13:15.970Z,67.10
2022-08-18T02:14:16.094Z,67.60
2022-08-18T02:15:16.229Z,67.20
2022-08-18T02:16:16.340Z,67.50
2022-08-18T02:17:16.568Z,67.54
2022-08-18T02:18:39.261Z,67.54
2022-08-18T02:19:17.603Z,67.73
2022-08-18T02:20:16.736Z,67.73
2022-08-18T02:21:19.002Z,67.83
2022-08-18T02:22:18.070Z,68.03
2022-08-18T02:23:17.202Z,68.13
2022-08-18T02:24:17.313Z,68.43
2022-08-18T02:25:17.480Z,68.73
2022-08-18T02:26:17.596Z,68.73
2022-08-18T02:27:17.768Z,68.33
2022-08-18T02:28:17.883Z,68.33
2022-08-18T02:29:18.010Z,68.43
2022-08-18T02:30:18.139Z,68.13
2022-08-18T02:31:18.254Z,68.46
2022-08-18T02:32:18.380Z,68.56
2022-08-18T02:33:18.499Z,68.46
2022-08-18T02:34:18.640Z,68.66
2022-08-18T02:35:18.758Z,69.26
2022-08-18T02:36:18.870Z,68.86
2022-08-18T02:37:19.001Z,69.56
2022-08-18T02:38:19.114Z,69.06
2022-08-18T02:39:19.247Z,69.16
2022-08-18T02:40:19.454Z,69.56
2022-08-18T02:41:19.531Z,69.56
2022-08-18T02:42:19.650Z,69.26
2022-08-18T02:43:19.782Z,70.19
2022-08-18T02:44:19.856Z,69.79
2022-08-18T02:45:20.011Z,70.29
2022-08-18T02:46:20.134Z,70.49
2022-08-18T02:47:20.221Z,69.89
2022-08-18T02:48:21.292Z,69.69
2022-08-18T02:49:20.479Z,69.99
2022-08-18T02:50:20.621Z,70.09
2022-08-18T02:51:20.744Z,70.49
2022-08-18T02:52:21.828Z,69.89
2022-08-18T02:53:21.079Z,70.29
2022-08-18T02:54:21.097Z,69.79
2022-08-18T02:55:21.234Z,69.99
2022-08-18T02:56:40.287Z,69.99
2022-08-18T02:57:22.437Z,69.59
2022-08-18T02:58:21.555Z,69.99
2022-08-18T02:59:21.715Z,69.99
2022-08-18T03:00:21.881Z,69.59
2022-08-18T03:01:22.055Z,70.19
2022-08-18T03:02:22.169Z,70.09
2022-08-18T03:03:22.302Z,70.39
2022-08-18T03:04:28.168Z,70.09
2022-08-18T03:05:23.595Z,69.89
2022-08-18T03:06:22.592Z,70.49
2022-08-18T03:07:22.717Z,70.12
2022-08-18T03:08:22.832Z,70.42
2022-08-18T03:09:22.940Z,70.62
2022-08-18T03:10:31.436Z,70.72
2022-08-18T03:11:24.144Z,70.72
2022-08-18T03:12:23.260Z,70.92
2022-08-18T03:13:23.399Z,71.06
2022-08-18T03:14:23.516Z,71.56
2022-08-18T03:15:23.638Z,71.86
2022-08-18T03:16:23.824Z,71.36
2022-08-18T03:17:23.961Z,72.05
2022-08-18T03:18:24.208Z,72.45
2022-08-18T03:19:24.245Z,72.75
2022-08-18T03:20:30.166Z,71.75
2022-08-18T03:21:25.480Z,72.05
2022-08-18T03:22:28.033Z,71.95
2022-08-18T03:23:30.356Z,71.89
2022-08-18T03:24:24.818Z,72.29
2022-08-18T03:25:24.934Z,72.49
2022-08-18T03:26:25.060Z,73.09
2022-08-18T03:27:25.189Z,72.65
2022-08-18T03:28:25.584Z,72.75
2022-08-18T03:29:29.561Z,73.45
2022-08-18T03:30:26.518Z,72.55
2022-08-18T03:31:27.921Z,72.65
2022-08-18T03:32:25.790Z,72.55
2022-08-18T03:33:25.929Z,72.65
2022-08-18T03:34:26.101Z,72.85
2022-08-18T03:35:26.229Z,72.75
2022-08-18T03:36:26.365Z,72.75
2022-08-18T03:37:26.508Z,72.45
2022-08-18T03:38:26.627Z,72.75
2022-08-18T03:39:26.823Z,72.45
2022-08-18T03:40:26.933Z,72.75
2022-08-18T03:41:57.655Z,72.85
2022-08-18T03:42:28.160Z,72.69
2022-08-18T03:43:50.693Z,72.78
2022-08-18T03:44:28.368Z,73.09
2022-08-18T03:45:27.493Z,73.49
2022-08-18T03:46:27.615Z,73.42
2022-08-18T03:47:27.697Z,73.62
2022-08-18T03:48:27.827Z,73.42
2022-08-18T03:49:27.975Z,73.72
2022-08-18T03:50:28.078Z,73.42
2022-08-18T03:51:35.220Z,73.82
2022-08-18T03:52:30.018Z,73.52
2022-08-18T03:53:28.498Z,73.92
2022-08-18T03:54:28.640Z,73.02
2022-08-18T03:55:28.762Z,73.32
2022-08-18T03:56:28.886Z,73.32
2022-08-18T03:57:29.005Z,73.32
2022-08-18T03:58:29.108Z,73.52
2022-08-18T03:59:29.230Z,73.42
2022-08-18T04:00:29.412Z,73.19
2022-08-18T04:01:29.552Z,72.59
2022-08-18T04:02:29.595Z,73.28
2022-08-18T04:03:29.750Z,73.19
2022-08-18T04:04:29.869Z,72.78
2022-08-18T04:05:30.008Z,72.39
2022-08-18T04:06:30.645Z,72.39
2022-08-18T04:07:30.230Z,73.28
2022-08-18T04:08:30.380Z,72.59
2022-08-18T04:09:30.501Z,72.49
2022-08-18T04:10:30.646Z,72.29
2022-08-18T04:11:35.663Z,72.89
2022-08-18T04:12:31.871Z,72.09
2022-08-18T04:13:31.019Z,72.39
2022-08-18T04:14:31.141Z,72.49
2022-08-18T04:15:31.266Z,72.69
2022-08-18T04:16:31.410Z,72.99
2022-08-18T04:17:31.537Z,73.09
2022-08-18T04:18:31.678Z,72.49
2022-08-18T04:19:31.809Z,71.99
2022-08-18T04:20:31.947Z,71.79
2022-08-18T04:21:32.072Z,72.09
2022-08-18T04:22:32.191Z,72.29
2022-08-18T04:23:33.106Z,72.05
2022-08-18T04:24:33.597Z,72.16
2022-08-18T04:25:33.120Z,72.55
2022-08-18T04:26:32.738Z,72.25
2022-08-18T04:27:32.874Z,72.35
2022-08-18T04:28:33.037Z,71.86
2022-08-18T04:29:33.158Z,71.95
2022-08-18T04:30:33.288Z,71.75
2022-08-18T04:31:33.414Z,71.26
2022-08-18T04:32:33.545Z,70.95
2022-08-18T04:33:33.681Z,71.75
2022-08-18T04:34:33.821Z,70.92
2022-08-18T04:35:33.936Z,71.62
2022-08-18T04:36:34.067Z,71.62
2022-08-18T04:37:39.760Z,71.75
2022-08-18T04:38:35.276Z,70.53
2022-08-18T04:39:34.467Z,71.62
2022-08-18T04:40:34.490Z,71.52
2022-08-18T04:41:34.617Z,70.72
2022-08-18T04:42:34.759Z,70.53
2022-08-18T04:43:35.856Z,70.32
2022-08-18T04:44:34.979Z,70.12
2022-08-18T04:45:35.102Z,69.92
2022-08-18T04:46:35.238Z,69.92
2022-08-18T04:47:35.366Z,70.42
2022-08-18T04:48:35.498Z,70.42
2022-08-18T04:49:35.637Z,70.32
2022-08-18T04:50:35.767Z,70.03
2022-08-18T04:52:36.670Z,70.23
2022-08-18T04:52:41.252Z,69.92
2022-08-18T04:53:36.126Z,70.32
2022-08-18T04:54:36.323Z,70.19
2022-08-18T04:55:36.428Z,70.19
2022-08-18T04:56:36.549Z,69.59
2022-08-18T04:57:36.687Z,69.59
2022-08-18T04:58:36.814Z,69.79
2022-08-18T04:59:36.957Z,69.29
2022-08-18T05:00:37.077Z,69.20
2022-08-18T05:01:37.241Z,70.09
2022-08-18T05:02:37.259Z,69.39
2022-08-18T05:03:37.380Z,69.49
2022-08-18T05:04:38.469Z,69.59
2022-08-18T05:05:37.595Z,70.29
2022-08-18T05:06:37.721Z,69.99
2022-08-18T05:07:37.837Z,70.06
2022-08-18T05:08:37.967Z,69.56
2022-08-18T05:09:41.320Z,69.36
2022-08-18T05:10:38.217Z,70.16
2022-08-18T05:11:38.341Z,69.36
2022-08-18T05:12:38.457Z,69.16
2022-08-18T05:13:38.984Z,68.86
2022-08-18T05:14:38.714Z,69.96
2022-08-18T05:16:06.941Z,68.86
2022-08-18T05:16:48.298Z,68.56
2022-08-18T05:17:40.093Z,68.86
2022-08-18T05:18:39.254Z,69.26
2022-08-18T05:19:44.182Z,68.86
2022-08-18T05:20:40.450Z,68.96
2022-08-18T05:21:39.557Z,69.06
2022-08-18T05:22:39.681Z,68.07
2022-08-18T05:23:39.794Z,68.86
2022-08-18T05:24:39.941Z,69.16
2022-08-18T05:25:40.050Z,68.93
2022-08-18T05:26:40.166Z,68.63
2022-08-18T05:27:40.285Z,68.33
2022-08-18T05:28:40.395Z,68.33
2022-08-18T05:29:41.566Z,68.13
2022-08-18T05:30:41.608Z,68.63
2022-08-18T05:31:40.709Z,68.13
2022-08-18T05:32:48.520Z,67.83
2022-08-18T05:33:41.897Z,68.63
2022-08-18T05:34:41.013Z,67.40
2022-08-18T05:35:41.187Z,67.00
2022-08-18T05:36:41.184Z,68.30
2022-08-18T05:37:41.295Z,67.60
2022-08-18T05:38:41.408Z,67.40
2022-08-18T05:39:41.558Z,68.60
2022-08-18T05:40:41.666Z,67.40
2022-08-18T05:41:41.779Z,67.30
2022-08-18T05:42:41.921Z,67.60
2022-08-18T05:43:52.186Z,68.10
2022-08-18T05:44:43.096Z,66.01
2022-08-18T05:45:42.226Z,66.80
2022-08-18T05:46:42.341Z,66.31
2022-08-18T05:47:42.467Z,66.61
2022-08-18T05:48:43.217Z,66.17
2022-08-18T05:49:42.679Z,67.00
2022-08-18T05:50:42.799Z,66.57
2022-08-18T05:51:42.911Z,66.47
2022-08-18T05:52:43.016Z,65.48
2022-08-18T05:53:43.116Z,66.38
2022-08-18T05:54:43.224Z,66.27
2022-08-18T05:55:47.629Z,65.84
2022-08-18T05:56:43.487Z,65.35
2022-08-18T05:57:43.601Z,65.75
2022-08-18T05:58:43.705Z,66.05
2022-08-18T05:59:43.813Z,64.25
2022-08-18T06:00:43.885Z,64.32
2022-08-18T06:01:44.046Z,64.12
2022-08-18T06:02:44.185Z,64.12
2022-08-18T06:03:45.179Z,63.43
2022-08-18T06:04:44.345Z,63.40
2022-08-18T06:05:44.479Z,63.40
2022-08-18T06:06:47.666Z,62.77
2022-08-18T06:07:44.815Z,62.57
2022-08-18T06:08:44.837Z,61.65
2022-08-18T06:09:44.978Z,62.05
2022-08-18T06:10:45.089Z,62.64
2022-08-18T06:11:45.200Z,61.72
2022-08-18T06:12:47.269Z,61.42
2022-08-18T06:13:45.425Z,60.63
2022-08-18T06:14:45.573Z,61.02
2022-08-18T06:15:45.671Z,60.83
2022-08-18T06:16:45.837Z,61.19
2022-08-18T06:17:46.724Z,61.29
2022-08-18T06:18:46.075Z,61.26
2022-08-18T06:19:46.210Z,60.47
2022-08-18T06:20:46.326Z,60.34
2022-08-18T06:21:46.457Z,60.14
2022-08-18T06:22:52.399Z,59.92
2022-08-18T06:23:47.650Z,59.22
2022-08-18T06:24:46.800Z,58.92
2022-08-18T06:25:46.924Z,58.92
2022-08-18T06:26:47.036Z,57.93
2022-08-18T06:27:47.177Z,58.23
2022-08-18T06:28:47.199Z,58.33
2022-08-18T06:29:47.338Z,57.64
2022-08-18T06:30:47.480Z,57.71
2022-08-18T06:31:47.598Z,57.51
2022-08-18T06:32:47.708Z,57.41
2022-08-18T06:33:47.822Z,57.61
2022-08-18T06:34:47.974Z,57.02
2022-08-18T06:35:48.512Z,57.51
2022-08-18T06:36:48.098Z,56.92
2022-08-18T06:37:48.265Z,57.02
2022-08-18T06:38:48.262Z,57.51
2022-08-18T06:39:48.445Z,57.71
2022-08-18T06:40:48.434Z,57.29
2022-08-18T06:41:48.528Z,57.68
2022-08-18T06:42:48.639Z,57.90
2022-08-18T06:43:48.775Z,57.12
2022-08-18T06:44:48.873Z,57.51
2022-08-18T06:45:48.975Z,57.61
2022-08-18T06:46:49.068Z,58.30
2022-08-18T06:47:49.161Z,59.00
2022-08-18T06:48:49.287Z,57.61
2022-08-18T06:49:49.386Z,56.99
2022-08-18T06:50:49.532Z,57.41
2022-08-18T06:51:49.631Z,57.21
2022-08-18T06:52:49.710Z,57.51
2022-08-18T06:53:49.815Z,57.81
2022-08-18T06:54:51.570Z,58.01
2022-08-18T06:55:49.967Z,57.02
2022-08-18T06:56:50.093Z,57.21
2022-08-18T06:57:50.291Z,57.21
2022-08-18T06:58:53.186Z,56.62
2022-08-18T06:59:50.341Z,56.72
2022-08-18T07:00:50.568Z,56.30
2022-08-18T07:01:50.556Z,57.09
2022-08-18T07:02:50.658Z,57.68
2022-08-18T07:03:50.896Z,57.68
2022-08-18T07:04:50.855Z,60.94
2022-08-18T07:05:50.969Z,58.15
2022-08-18T07:06:51.066Z,56.46
2022-08-18T07:07:51.222Z,56.86
2022-08-18T07:08:51.312Z,56.96
2022-08-18T07:09:51.397Z,56.24
2022-08-18T07:10:51.578Z,55.85
2022-08-18T07:11:51.595Z,55.43
2022-08-18T07:12:51.755Z,55.62
2022-08-18T07:14:03.600Z,56.02
2022-08-18T07:14:52.801Z,56.02
2022-08-18T07:15:51.946Z,55.22
2022-08-18T07:17:00.106Z,55.13
2022-08-18T07:17:53.144Z,55.35
2022-08-18T07:18:52.049Z,56.14
2022-08-18T07:19:52.175Z,56.46
2022-08-18T07:20:52.306Z,57.06
2022-08-18T07:21:52.412Z,57.48
2022-08-18T07:22:52.533Z,57.29
2022-08-18T07:24:14.202Z,57.09
2022-08-18T07:24:53.660Z,58.47
2022-08-18T07:25:52.811Z,57.78
2022-08-18T07:26:52.809Z,57.88
2022-08-18T07:27:53.236Z,57.78
2022-08-18T07:28:52.931Z,57.29
2022-08-18T07:29:53.026Z,57.68
2022-08-18T07:31:15.557Z,58.15
2022-08-18T07:31:54.179Z,57.95
2022-08-18T07:32:53.292Z,58.28
2022-08-18T07:33:53.415Z,58.07
2022-08-18T07:34:53.607Z,57.58
2022-08-18T07:35:53.668Z,57.39
2022-08-18T07:36:53.640Z,57.98
2022-08-18T07:37:53.832Z,57.58
2022-08-18T07:38:53.855Z,57.65
2022-08-18T07:39:54.003Z,57.75
2022-08-18T07:40:54.036Z,58.15
2022-08-18T07:41:54.123Z,57.26
2022-08-18T07:43:02.100Z,56.67
2022-08-18T07:43:55.284Z,56.07
2022-08-18T07:44:54.383Z,56.07
2022-08-18T07:45:54.520Z,55.65
2022-08-18T07:46:54.604Z,56.44
2022-08-18T07:47:54.776Z,55.55
2022-08-18T07:48:54.736Z,55.45
2022-08-18T07:50:18.259Z,55.75
2022-08-18T07:50:58.283Z,57.13
2022-08-18T07:51:55.035Z,55.65
2022-08-18T07:52:55.128Z,55.05
2022-08-18T07:53:56.540Z,55.72
2022-08-18T07:54:55.286Z,55.52
2022-08-18T07:55:55.405Z,55.52
2022-08-18T07:56:55.486Z,56.02
2022-08-18T07:57:55.775Z,56.21
2022-08-18T07:58:55.634Z,56.02
2022-08-18T07:59:55.744Z,56.02
2022-08-18T08:00:59.124Z,55.03
2022-08-18T08:01:55.962Z,55.33
2022-08-18T08:02:55.941Z,55.82
2022-08-18T08:03:56.069Z,54.83
2022-08-18T08:04:56.154Z,55.33
2022-08-18T08:05:56.240Z,55.33
2022-08-18T08:07:23.036Z,55.33
2022-08-18T08:07:57.397Z,55.52
2022-08-18T08:08:56.496Z,55.92
2022-08-18T08:09:56.591Z,55.72
2022-08-18T08:10:56.701Z,56.21
2022-08-18T08:11:56.716Z,56.41
2022-08-18T08:13:08.359Z,55.49
2022-08-18T08:13:57.891Z,55.49
2022-08-18T08:14:56.965Z,55.40
2022-08-18T08:15:57.067Z,56.19
2022-08-18T08:16:57.179Z,55.20
2022-08-18T08:17:57.261Z,55.60
2022-08-18T08:18:57.362Z,54.88
2022-08-18T08:20:00.645Z,55.66
2022-08-18T08:20:57.538Z,54.90
2022-08-18T08:21:57.652Z,55.10
2022-08-18T08:22:57.766Z,55.37
2022-08-18T08:23:57.834Z,55.66
2022-08-18T08:24:57.933Z,55.96
2022-08-18T08:25:58.041Z,55.66
2022-08-18T08:26:58.202Z,54.58
2022-08-18T08:27:58.146Z,54.16
2022-08-18T08:28:58.180Z,54.16
2022-08-18T08:29:58.290Z,54.36
2022-08-18T08:31:13.552Z,54.95
2022-08-18T08:31:59.438Z,54.75
2022-08-18T08:32:58.623Z,54.65
2022-08-18T08:34:01.668Z,54.26
2022-08-18T08:34:59.647Z,54.36
2022-08-18T08:35:58.738Z,54.55
2022-08-18T08:36:58.836Z,53.94
2022-08-18T08:38:04.808Z,54.33
2022-08-18T08:38:59.948Z,54.23
2022-08-18T08:39:59.141Z,54.43
2022-08-18T08:40:59.159Z,55.51
2022-08-18T08:42:30.264Z,54.23
2022-08-18T08:43:00.308Z,55.12
2022-08-18T08:43:59.436Z,55.32
2022-08-18T08:44:59.995Z,54.99
2022-08-18T08:45:59.501Z,54.11
2022-08-18T08:46:59.457Z,54.77
2022-08-18T08:48:08.098Z,54.25
2022-08-18T08:49:00.605Z,53.86
2022-08-18T08:50:01.046Z,53.76
2022-08-18T08:50:59.699Z,53.56
2022-08-18T08:51:59.787Z,53.07
2022-08-18T08:52:59.863Z,53.56
2022-08-18T08:53:59.966Z,53.76
2022-08-18T08:55:00.028Z,53.07
2022-08-18T08:56:02.458Z,53.83
2022-08-18T08:57:00.200Z,52.85
2022-08-18T08:58:00.151Z,52.43
2022-08-18T08:59:00.261Z,52.21
2022-08-18T09:00:00.243Z,51.98
2022-08-18T09:01:00.370Z,50.39
2022-08-18T09:02:00.550Z,51.47
2022-08-18T09:03:00.598Z,50.29
2022-08-18T09:04:00.461Z,50.98
2022-08-18T09:05:08.418Z,51.54
2022-08-18T09:06:01.514Z,50.98
2022-08-18T09:07:00.699Z,51.34
2022-08-18T09:08:00.635Z,50.76
2022-08-18T09:09:00.631Z,49.58
2022-08-18T09:10:00.630Z,51.84
2022-08-18T09:11:00.732Z,50.14
2022-08-18T09:12:00.685Z,51.22
2022-08-18T09:13:00.761Z,49.73
2022-08-18T09:14:00.864Z,49.51
2022-08-18T09:15:01.068Z,49.41
2022-08-18T09:16:01.097Z,50.07
2022-08-18T09:17:02.117Z,48.48
2022-08-18T09:18:01.086Z,48.92
2022-08-18T09:19:01.015Z,46.57
2022-08-18T09:20:01.234Z,45.76
2022-08-18T09:21:01.019Z,46.62
2022-08-18T09:22:01.053Z,47.95
2022-08-18T09:23:01.165Z,44.12
2022-08-18T09:24:01.064Z,44.17
2022-08-18T09:25:01.099Z,44.56
2022-08-18T09:26:01.114Z,43.66
2022-08-18T09:27:01.134Z,43.27
2022-08-18T09:28:10.985Z,42.76
2022-08-18T09:29:02.129Z,44.23
2022-08-18T09:30:01.209Z,44.03
2022-08-18T09:31:01.125Z,43.15
2022-08-18T09:32:01.083Z,42.35
2022-08-18T09:33:01.107Z,42.94
2022-08-18T09:34:06.728Z,42.35
2022-08-18T09:35:02.116Z,42.16
2022-08-18T09:36:01.100Z,42.04
2022-08-18T09:37:00.977Z,42.80
2022-08-18T09:38:01.015Z,41.80
2022-08-18T09:39:01.047Z,41.10
2022-08-18T09:40:11.070Z,40.81
2022-08-18T09:41:03.453Z,41.03
2022-08-18T09:42:00.994Z,40.81
2022-08-18T09:43:02.141Z,40.42
2022-08-18T09:44:00.936Z,42.08
2022-08-18T09:45:00.911Z,42.49
2022-08-18T09:46:00.985Z,41.32
2022-08-18T09:47:01.357Z,40.66
2022-08-18T09:48:00.870Z,41.96
2022-08-18T09:49:00.856Z,42.55
2022-08-18T09:50:01.829Z,43.15
2022-08-18T09:51:00.798Z,43.15
2022-08-18T09:52:08.765Z,43.25
2022-08-18T09:53:04.700Z,43.76
2022-08-18T09:54:00.740Z,43.37
2022-08-18T09:55:01.501Z,43.57
2022-08-18T09:56:04.829Z,43.37
2022-08-18T09:57:00.718Z,44.05
2022-08-18T09:58:00.741Z,43.93
2022-08-18T09:59:00.709Z,44.13
2022-08-18T10:00:00.711Z,43.84
2022-08-18T10:01:00.778Z,43.54
2022-08-18T10:02:00.668Z,43.25
2022-08-18T10:03:00.709Z,43.13
2022-08-18T10:04:00.700Z,44.49
2022-08-18T10:05:00.738Z,43.60
2022-08-18T10:06:01.712Z,41.85
2022-08-18T10:07:00.670Z,42.14
2022-08-18T10:08:00.666Z,42.04
2022-08-18T10:09:00.662Z,42.21
2022-08-18T10:10:00.814Z,41.24
2022-08-18T10:12:01.488Z,39.88
2022-08-18T10:13:00.482Z,40.75
2022-08-18T10:14:00.480Z,42.31
2022-08-18T10:15:00.403Z,42.39
2022-08-18T10:16:10.243Z,42.39
2022-08-18T10:17:23.703Z,41.44
2022-08-18T10:18:01.277Z,41.93
2022-08-18T10:19:00.266Z,42.70
2022-08-18T10:20:00.171Z,42.33
2022-08-18T10:21:00.076Z,42.72
2022-08-18T10:22:00.023Z,42.55
2022-08-18T10:23:00.021Z,43.15
2022-08-18T10:24:29.782Z,42.49
2022-08-18T10:25:20.863Z,41.79
2022-08-18T10:26:04.441Z,41.71
2022-08-18T10:26:59.890Z,41.54
2022-08-18T10:27:59.902Z,41.03
2022-08-18T10:28:59.903Z,41.03
2022-08-18T10:29:59.922Z,41.50
2022-08-18T10:31:05.879Z,42.94
2022-08-18T10:32:00.924Z,41.51
2022-08-18T10:33:00.333Z,41.67
2022-08-18T10:33:59.833Z,40.75
2022-08-18T10:34:59.815Z,39.65
2022-08-18T10:35:59.792Z,40.01
2022-08-18T10:36:59.764Z,38.13
2022-08-18T10:37:59.747Z,37.65
2022-08-18T10:38:59.713Z,36.47
2022-08-18T10:39:59.743Z,37.75
2022-08-18T10:40:59.634Z,38.12
2022-08-18T10:42:00.546Z,37.94
2022-08-18T10:42:59.492Z,37.36
2022-08-18T10:43:59.507Z,38.79
2022-08-18T10:44:59.455Z,37.32
2022-08-18T10:46:25.437Z,36.53
2022-08-18T10:47:00.310Z,36.52
2022-08-18T10:47:59.243Z,36.32
2022-08-18T10:48:59.162Z,35.82
2022-08-18T10:49:59.103Z,35.55
2022-08-18T10:50:59.045Z,35.74
2022-08-18T10:52:00.371Z,35.06
2022-08-18T10:53:24.470Z,34.39
2022-08-18T10:53:59.732Z,35.41
2022-08-18T10:54:58.599Z,36.58
2022-08-18T10:55:58.577Z,35.94
2022-08-18T10:56:58.472Z,35.67
2022-08-18T10:57:58.388Z,35.57
2022-08-18T10:58:58.334Z,36.43
2022-08-18T10:59:58.276Z,35.86
2022-08-18T11:00:58.234Z,36.02
2022-08-18T11:01:58.164Z,35.44
2022-08-18T11:03:02.569Z,35.72
2022-08-18T11:03:59.100Z,35.52
2022-08-18T11:04:59.098Z,34.84
2022-08-18T11:05:57.786Z,35.50
2022-08-18T11:06:57.645Z,35.29
2022-08-18T11:08:58.453Z,35.53
2022-08-18T11:10:04.888Z,35.42
2022-08-18T11:11:27.546Z,32.71
2022-08-18T11:12:00.842Z,34.39
2022-08-18T11:12:57.452Z,35.68
2022-08-18T11:13:57.009Z,33.44
2022-08-18T11:14:56.864Z,34.47
2022-08-18T11:15:56.758Z,33.39
2022-08-18T11:16:56.764Z,33.78
2022-08-18T11:17:56.603Z,34.94
2022-08-18T11:18:56.475Z,32.62
2022-08-18T11:19:56.426Z,35.11
2022-08-18T11:20:56.261Z,33.17
2022-08-18T11:21:56.260Z,32.89
2022-08-18T11:23:57.030Z,33.00
2022-08-18T11:24:55.920Z,32.71
2022-08-18T11:25:55.906Z,32.73
2022-08-18T11:26:55.814Z,34.10
2022-08-18T11:27:55.789Z,32.64
2022-08-18T11:28:55.784Z,32.91
2022-08-18T11:29:55.517Z,32.73
2022-08-18T11:30:55.463Z,34.63
2022-08-18T11:31:55.416Z,32.67
2022-08-18T11:32:55.585Z,32.84
2022-08-18T11:33:55.269Z,32.56
2022-08-18T11:34:55.215Z,33.61
2022-08-18T11:35:55.147Z,32.57
2022-08-18T11:36:55.111Z,31.59
2022-08-18T11:37:54.961Z,32.23
2022-08-18T11:38:54.802Z,32.03
2022-08-18T11:39:54.803Z,31.93
2022-08-18T11:41:11.549Z,31.34
2022-08-18T11:41:55.654Z,31.54
2022-08-18T11:42:54.713Z,30.82
2022-08-18T11:43:54.353Z,32.07
2022-08-18T11:44:54.304Z,32.75
2022-08-18T11:45:54.240Z,31.01
2022-08-18T11:46:54.190Z,30.91
2022-08-18T11:47:54.064Z,31.98
2022-08-18T11:48:54.140Z,32.38
2022-08-18T11:49:53.982Z,32.87
2022-08-18T11:50:54.419Z,32.25
2022-08-18T11:51:53.889Z,32.10
2022-08-18T11:52:54.572Z,32.28
2022-08-18T11:53:58.280Z,31.11
2022-08-18T11:54:54.611Z,30.04
2022-08-18T11:55:53.520Z,28.70
2022-08-18T11:56:53.669Z,29.08
2022-08-18T11:57:53.369Z,30.74
2022-08-18T11:58:53.324Z,31.24
2022-08-18T12:00:00.618Z,30.55
2022-08-18T12:00:54.057Z,30.76
2022-08-18T12:01:52.992Z,30.58
2022-08-18T12:02:53.047Z,31.27
2022-08-18T12:03:52.869Z,31.69
2022-08-18T12:04:53.034Z,32.28
2022-08-18T12:06:53.609Z,33.28
2022-08-18T12:07:57.818Z,33.40
2022-08-18T12:10:53.339Z,35.04
2022-08-18T12:11:52.311Z,35.23
2022-08-18T12:12:52.899Z,35.13
2022-08-18T12:13:52.266Z,34.92
2022-08-18T12:14:52.276Z,34.21
2022-08-18T12:15:52.159Z,33.22
2022-08-18T12:16:54.091Z,34.55
2022-08-18T12:17:53.050Z,33.86
2022-08-18T12:18:52.022Z,33.44
2022-08-18T12:19:51.926Z,31.49
2022-08-18T12:20:51.796Z,30.39
2022-08-18T12:21:51.667Z,28.95
2022-08-18T12:22:52.150Z,30.50
2022-08-18T12:23:52.290Z,28.85
2022-08-18T12:24:51.475Z,30.39
2022-08-18T12:25:51.608Z,29.88
2022-08-18T12:26:52.159Z,28.52
2022-08-18T12:27:51.328Z,28.67
2022-08-18T12:28:51.294Z,30.91
2022-08-18T12:29:51.274Z,30.85
2022-08-18T12:30:56.329Z,30.48
2022-08-18T12:31:52.193Z,32.20
2022-08-18T12:33:00.729Z,31.59
2022-08-18T12:34:00.663Z,30.11
2022-08-18T12:34:51.976Z,30.18
2022-08-18T12:35:50.866Z,31.21
2022-08-18T12:36:50.834Z,30.71
2022-08-18T12:38:52.035Z,29.10
2022-08-18T12:39:51.681Z,29.59
2022-08-18T12:40:50.589Z,29.94
2022-08-18T12:41:50.511Z,29.56
2022-08-18T12:42:50.533Z,29.94
2022-08-18T12:43:58.687Z,29.74
2022-08-18T12:44:51.150Z,28.56
2022-08-18T12:45:50.096Z,28.26
2022-08-18T12:46:50.080Z,27.50
2022-08-18T12:47:49.910Z,26.82
2022-08-18T12:48:49.868Z,27.15
2022-08-18T12:49:50.796Z,27.45
2022-08-18T12:50:58.673Z,28.20
2022-08-18T12:51:50.739Z,27.52
2022-08-18T12:52:49.492Z,28.09
2022-08-18T12:53:58.276Z,28.28
2022-08-18T12:54:55.667Z,28.56
2022-08-18T12:55:50.115Z,27.50
2022-08-18T12:56:49.085Z,28.57
2022-08-18T12:58:49.920Z,28.22
2022-08-18T12:59:48.862Z,28.61
2022-08-18T13:00:48.865Z,29.38